Time;durP1;ratioP1;P1;durP2;ratioP2;P2;SDS_P1;SDS_P2;PMS_P1;PMS_P2;Temp;Humidity;BMP_temperature;BMP_pressure;BME280_temperature;BME280_humidity;BME280_pressure;Samples;Min_cycle;Max_cycle;Signal;HPM_P1;HPM_P2
2021/06/25 00:02:05;;;;;;;10.18;4.80;;;;;;;25.52;70.38;100191.99;1733210;80;20845;-82
2021/06/25 00:04:31;;;;;;;11.03;4.60;;;;;;;25.43;70.46;100188.11;1742034;79;21158;-83
2021/06/25 00:06:57;;;;;;;9.85;4.22;;;;;;;25.42;70.58;100181.89;1754645;78;21219;-83
2021/06/25 00:09:22;;;;;;;10.72;4.50;;;;;;;25.55;70.21;100185.27;1760056;79;21018;-83
2021/06/25 00:11:51;;;;;;;11.03;4.20;;;;;;;25.62;69.85;100175.88;1770657;78;21155;-83
2021/06/25 00:14:21;;;;;;;8.90;3.98;;;;;;;25.52;69.66;100165.50;1778602;80;21246;-83
2021/06/25 00:16:45;;;;;;;8.48;3.50;;;;;;;25.60;69.54;100155.02;1778167;80;21779;-83
2021/06/25 00:19:10;;;;;;;9.75;4.00;;;;;;;25.61;69.19;100149.09;1771781;78;21007;-84
2021/06/25 00:21:36;;;;;;;10.78;3.80;;;;;;;25.55;69.20;100144.70;1769820;77;22169;-84
2021/06/25 00:24:02;;;;;;;10.28;3.70;;;;;;;25.62;68.83;100142.59;1764256;79;20900;-83
2021/06/25 00:26:28;;;;;;;9.45;3.90;;;;;;;25.58;68.93;100140.14;1759565;79;21809;-84
2021/06/25 00:28:54;;;;;;;9.98;3.92;;;;;;;25.52;69.08;100134.41;1767147;79;21641;-83
2021/06/25 00:31:19;;;;;;;8.25;3.98;;;;;;;25.45;69.30;100131.91;1755361;79;20931;-83
2021/06/25 00:33:45;;;;;;;11.90;3.80;;;;;;;25.46;69.26;100124.61;1752936;80;21067;-83
2021/06/25 00:36:11;;;;;;;14.13;4.37;;;;;;;25.44;69.48;100131.63;1759711;81;20983;-83
2021/06/25 00:38:37;;;;;;;9.13;4.00;;;;;;;25.43;69.64;100126.77;1762060;80;21230;-82
2021/06/25 00:41:02;;;;;;;10.48;4.10;;;;;;;25.39;69.88;100128.34;1799460;78;21330;-82
2021/06/25 00:43:28;;;;;;;10.43;3.67;;;;;;;25.18;70.78;100118.34;1817748;76;20871;-83
2021/06/25 00:45:54;;;;;;;8.83;3.92;;;;;;;25.01;71.31;100119.23;1807359;78;21068;-82
2021/06/25 00:48:20;;;;;;;7.42;3.40;;;;;;;24.91;71.45;100096.17;1809989;78;21525;-82
2021/06/25 00:50:46;;;;;;;8.65;3.42;;;;;;;24.99;71.56;100090.86;1818463;76;20895;-84
2021/06/25 00:53:11;;;;;;;10.37;4.10;;;;;;;24.89;71.40;100087.48;1815143;76;22275;-82
2021/06/25 00:55:43;;;;;;;7.45;3.58;;;;;;;24.79;71.45;100067.13;1821469;76;20957;-83
2021/06/25 00:58:16;;;;;;;9.55;3.62;;;;;;;24.70;71.62;100055.44;1791403;78;21585;-83
2021/06/25 01:00:43;;;;;;;7.87;3.62;;;;;;;24.88;71.10;100035.91;1761344;79;21892;-83
2021/06/25 01:03:10;;;;;;;8.18;4.10;;;;;;;24.76;71.24;100013.63;1763840;80;21055;-82
2021/06/25 01:05:35;;;;;;;8.88;4.12;;;;;;;24.65;71.98;100003.25;1766312;80;21926;-82
2021/06/25 01:08:01;;;;;;;8.78;4.40;;;;;;;24.75;71.65;99982.28;1796968;78;20933;-82
2021/06/25 01:10:27;;;;;;;10.43;4.50;;;;;;;24.77;71.82;99972.86;1806279;78;20895;-82
2021/06/25 01:12:53;;;;;;;10.10;4.33;;;;;;;24.70;71.86;99960.92;1806895;77;20919;-82
2021/06/25 01:15:18;;;;;;;9.38;4.60;;;;;;;24.80;71.64;99947.24;1814104;78;21033;-82
2021/06/25 01:17:44;;;;;;;10.72;4.42;;;;;;;24.70;72.25;99929.87;1814215;78;21007;-82
2021/06/25 01:20:25;;;;;;;8.90;4.50;;;;;;;24.75;72.40;99910.71;1783194;78;21015;-82
2021/06/25 01:22:51;;;;;;;10.20;4.42;;;;;;;24.62;73.33;99896.56;1763617;79;21200;-82
2021/06/25 01:25:28;;;;;;;10.38;4.58;;;;;;;24.76;72.80;99870.49;1758075;80;20876;-81
2021/06/25 01:27:59;;;;;;;9.53;4.70;;;;;;;24.70;72.57;99855.61;1763116;80;21063;-81
2021/06/25 01:30:29;;;;;;;8.73;4.47;;;;;;;24.59;72.63;99835.52;1762195;79;21103;-83
2021/06/25 01:32:55;;;;;;;11.22;4.85;;;;;;;24.32;73.72;99807.45;1760067;79;21593;-81
2021/06/25 01:35:21;;;;;;;8.40;4.08;;;;;;;24.16;74.06;99773.28;1756755;81;21027;-83
2021/06/25 01:37:47;;;;;;;8.70;4.40;;;;;;;24.08;74.89;99733.30;1758379;79;20837;-82
2021/06/25 01:40:15;;;;;;;8.98;4.33;;;;;;;23.99;75.26;99696.55;1770966;78;20852;-81
2021/06/25 01:42:41;;;;;;;9.00;4.25;;;;;;;23.77;75.70;99670.94;1747551;79;21135;-83
2021/06/25 01:45:14;;;;;;;6.67;4.25;;;;;;;23.89;75.41;99660.84;1743956;82;21243;-82
2021/06/25 01:47:42;;;;;;;14.25;4.80;;;;;;;23.92;75.57;99671.12;1733499;80;21323;-82
2021/06/25 01:50:11;;;;;;;7.90;4.53;;;;;;;23.96;75.38;99700.56;1745809;81;21136;-82
2021/06/25 01:52:36;;;;;;;10.63;4.50;;;;;;;23.87;75.95;99742.54;1764907;79;21085;-82
2021/06/25 01:55:03;;;;;;;8.08;4.15;;;;;;;23.95;75.59;99780.37;1779315;79;21109;-82
2021/06/25 01:57:32;;;;;;;9.48;4.25;;;;;;;23.97;75.81;99806.55;1780219;78;21031;-82
2021/06/25 01:59:59;;;;;;;8.38;4.55;;;;;;;23.98;75.38;99842.70;1745537;80;21031;-82
2021/06/25 02:02:25;;;;;;;9.80;4.70;;;;;;;23.85;75.25;99886.27;1722020;81;28150;-83
2021/06/25 02:04:51;;;;;;;9.68;4.37;;;;;;;23.45;77.24;99929.09;1718549;82;21857;-82
2021/06/25 02:07:17;;;;;;;15.05;4.87;;;;;;;23.20;77.73;99972.08;1714352;82;21470;-82
2021/06/25 02:09:42;;;;;;;10.25;4.80;;;;;;;22.81;79.64;99969.23;1714333;82;21158;-82
2021/06/25 02:12:09;;;;;;;7.95;4.55;;;;;;;22.66;80.04;99955.48;1713656;82;20936;-83
2021/06/25 02:14:35;;;;;;;8.03;4.65;;;;;;;22.84;79.80;99974.12;1713864;82;21115;-83
2021/06/25 02:17:01;;;;;;;10.48;4.95;;;;;;;23.02;79.17;99988.44;1723190;81;21022;-80
2021/06/25 02:19:27;;;;;;;10.10;4.95;;;;;;;22.95;79.31;99959.78;1719940;81;21002;-81
2021/06/25 02:21:52;;;;;;;8.28;5.17;;;;;;;22.85;79.87;99971.70;1721011;81;20857;-82
2021/06/25 02:24:18;;;;;;;11.90;6.30;;;;;;;22.81;80.52;99975.95;1732739;81;21003;-83
2021/06/25 02:26:44;;;;;;;11.40;5.55;;;;;;;22.86;80.72;99979.27;1732176;81;20900;-82
2021/06/25 02:29:10;;;;;;;11.05;5.80;;;;;;;22.88;81.05;99998.15;1737613;81;21050;-83
2021/06/25 02:31:36;;;;;;;14.35;5.95;;;;;;;22.97;80.91;100015.28;1725825;81;21123;-81
2021/06/25 02:34:01;;;;;;;12.40;6.67;;;;;;;23.05;80.50;100004.11;1714431;82;20864;-82
2021/06/25 02:36:27;;;;;;;15.23;7.17;;;;;;;23.19;79.93;99993.34;1720309;81;20931;-83
2021/06/25 02:38:53;;;;;;;12.68;6.40;;;;;;;23.14;80.28;99983.83;1722117;81;21020;-83
2021/06/25 02:41:20;;;;;;;12.68;6.87;;;;;;;23.26;80.33;99979.19;1729094;81;20897;-83
2021/06/25 02:43:47;;;;;;;10.98;6.33;;;;;;;23.44;79.35;99970.56;1724004;80;21139;-83
2021/06/25 02:46:13;;;;;;;12.60;6.60;;;;;;;23.43;79.20;99981.88;1735623;80;21020;-83
2021/06/25 02:48:39;;;;;;;13.95;6.17;;;;;;;23.58;78.89;99983.98;1776924;79;21335;-84
2021/06/25 02:51:05;;;;;;;11.22;6.17;;;;;;;23.71;78.48;99987.41;1751939;80;21064;-83
2021/06/25 02:53:30;;;;;;;12.58;6.40;;;;;;;23.68;78.56;99983.84;1749487;80;20845;-83
2021/06/25 02:55:56;;;;;;;10.90;6.28;;;;;;;23.69;78.75;99988.99;1754466;78;21151;-83
2021/06/25 02:58:23;;;;;;;13.32;6.40;;;;;;;23.74;78.48;99990.95;1762602;79;20888;-83
2021/06/25 03:00:49;;;;;;;8.87;5.23;;;;;;;23.68;78.19;99991.42;1751019;78;21082;-82
2021/06/25 03:03:15;;;;;;;9.80;6.08;;;;;;;23.74;78.31;99995.00;1733591;82;21046;-82
2021/06/25 03:05:41;;;;;;;10.55;6.22;;;;;;;23.81;78.00;100007.78;1727037;81;21842;-81
2021/06/25 03:08:07;;;;;;;12.47;6.50;;;;;;;23.78;78.10;100015.02;1734694;81;21148;-82
2021/06/25 03:10:33;;;;;;;12.40;6.33;;;;;;;23.77;78.33;100022.81;1717101;81;21152;-82
2021/06/25 03:12:59;;;;;;;11.68;6.03;;;;;;;23.69;78.71;100024.59;1715557;81;20935;-81
2021/06/25 03:15:24;;;;;;;11.10;6.28;;;;;;;23.66;78.89;100015.94;1709979;83;20896;-83
2021/06/25 03:17:50;;;;;;;15.40;6.20;;;;;;;23.70;78.82;100016.80;1708175;83;21149;-82
2021/06/25 03:20:16;;;;;;;13.72;6.37;;;;;;;23.96;78.38;100018.83;1713131;83;22049;-82
2021/06/25 03:22:42;;;;;;;12.43;6.35;;;;;;;24.07;77.57;100028.42;1712862;83;21043;-82
2021/06/25 03:25:09;;;;;;;12.65;6.15;;;;;;;23.93;77.76;100032.80;1723694;80;21086;-83
2021/06/25 03:27:36;;;;;;;11.15;6.15;;;;;;;23.92;78.09;100041.95;1710026;83;21115;-82
2021/06/25 03:30:04;;;;;;;10.45;5.90;;;;;;;24.07;77.90;100041.91;1749357;80;21069;-81
2021/06/25 03:32:30;;;;;;;11.48;6.25;;;;;;;24.08;77.53;100057.81;1776865;79;21126;-87
2021/06/25 03:34:56;;;;;;;11.93;6.70;;;;;;;24.17;77.35;100067.66;1807828;77;20923;-83
2021/06/25 03:37:22;;;;;;;12.50;6.28;;;;;;;24.18;77.11;100073.35;1825520;77;20852;-82
2021/06/25 03:39:47;;;;;;;11.93;6.65;;;;;;;24.34;76.73;100083.27;1810097;77;20989;-82
2021/06/25 03:42:13;;;;;;;11.15;6.00;;;;;;;24.32;76.47;100074.63;1816970;77;20935;-83
2021/06/25 03:44:39;;;;;;;10.98;5.95;;;;;;;24.42;76.08;100083.92;1812456;77;21160;-82
2021/06/25 03:47:05;;;;;;;10.20;5.42;;;;;;;24.35;76.12;100092.21;1788613;77;21152;-82
2021/06/25 03:49:31;;;;;;;9.25;5.22;;;;;;;24.31;75.93;100101.31;1732877;82;21005;-82
2021/06/25 03:51:57;;;;;;;10.78;5.55;;;;;;;24.13;76.29;100100.23;1743943;82;21081;-82
2021/06/25 03:54:23;;;;;;;15.30;6.00;;;;;;;24.17;76.13;100082.50;1722905;80;20942;-83
2021/06/25 03:56:49;;;;;;;11.85;5.55;;;;;;;24.28;75.83;100072.13;1795379;78;21711;-82
2021/06/25 03:59:14;;;;;;;10.90;5.55;;;;;;;24.43;75.43;100081.52;1821968;76;21814;-82
2021/06/25 04:01:41;;;;;;;10.43;5.45;;;;;;;24.60;75.15;100056.66;1814624;76;21740;-82
2021/06/25 04:04:07;;;;;;;;;;;;;;;24.60;75.15;100056.66;1814181;78;20981;-83
2021/06/25 04:06:33;;;;;;;9.78;5.40;;;;;;;24.48;75.41;100052.69;1788630;78;20156;-83
2021/06/25 04:08:59;;;;;;;9.40;4.67;;;;;;;24.54;75.55;100041.42;1741393;78;21142;-81
2021/06/25 04:11:24;;;;;;;11.22;6.17;;;;;;;24.63;75.27;100026.45;1751986;78;20875;-81
2021/06/25 04:13:50;;;;;;;10.65;5.53;;;;;;;24.62;75.31;100003.20;1759544;78;20979;-87
2021/06/25 04:16:16;;;;;;;11.48;5.53;;;;;;;24.68;75.15;99971.14;1760293;80;20904;-82
2021/06/25 04:18:42;;;;;;;11.25;5.62;;;;;;;24.76;74.60;99956.91;1752964;80;20999;-83
2021/06/25 04:21:08;;;;;;;12.03;5.70;;;;;;;24.54;74.50;99938.84;1767786;80;21943;-85
2021/06/25 04:23:34;;;;;;;11.70;5.40;;;;;;;24.30;75.16;99935.08;1765345;80;26002;-83
2021/06/25 04:26:00;;;;;;;8.18;4.90;;;;;;;24.05;76.12;99922.63;1771831;80;21097;-84
2021/06/25 04:28:26;;;;;;;10.88;5.60;;;;;;;24.03;76.32;99913.98;1753983;80;21103;-86
2021/06/25 04:30:52;;;;;;;12.00;5.42;;;;;;;23.94;76.64;99898.24;1758430;80;21027;-82
2021/06/25 04:33:17;;;;;;;10.28;5.50;;;;;;;23.85;77.07;99883.56;1750865;81;21164;-81
2021/06/25 04:35:44;;;;;;;12.23;5.42;;;;;;;23.90;77.02;99894.41;1758240;80;20872;-83
2021/06/25 04:38:10;;;;;;;9.60;5.60;;;;;;;24.07;76.53;99935.34;1760992;80;21118;-89
2021/06/25 04:40:41;;;;;;;11.53;5.70;;;;;;;24.14;76.30;99957.54;1758874;80;21071;-85
2021/06/25 04:43:07;;;;;;;8.83;5.05;;;;;;;24.21;75.66;99967.62;1758693;81;21325;-86
2021/06/25 04:45:35;;;;;;;9.23;5.57;;;;;;;24.47;74.82;99974.14;1770470;78;21056;-88
2021/06/25 04:48:04;;;;;;;10.65;5.05;;;;;;;24.45;74.77;99955.20;1782371;80;21005;-91
2021/06/25 04:50:31;;;;;;;11.38;5.60;;;;;;;24.44;74.88;99933.32;1760072;78;21026;-87
2021/06/25 04:52:57;;;;;;;12.53;5.35;;;;;;;24.52;74.59;99926.95;1754279;80;22708;-81
2021/06/25 04:55:22;;;;;;;12.55;5.75;;;;;;;24.57;74.96;99903.27;1762265;80;20978;-86
2021/06/25 04:57:50;;;;;;;13.90;5.28;;;;;;;24.65;73.72;99881.19;1763044;81;21048;-86
2021/06/25 05:00:17;;;;;;;11.38;5.65;;;;;;;24.75;73.63;99893.99;1753343;80;21087;-83
2021/06/25 05:02:43;;;;;;;9.67;5.47;;;;;;;24.69;73.81;99897.17;1758177;80;21075;-83
2021/06/25 05:05:09;;;;;;;10.25;6.08;;;;;;;24.62;73.24;99889.80;1761426;80;21335;-85
2021/06/25 05:07:35;;;;;;;10.60;5.60;;;;;;;24.50;73.90;99885.06;1784248;78;21799;-85
2021/06/25 05:10:01;;;;;;;9.68;5.58;;;;;;;24.62;73.46;99908.70;1811757;76;21087;-84
2021/06/25 05:12:27;;;;;;;9.40;6.17;;;;;;;24.56;72.81;99943.44;1789337;78;21131;-86
2021/06/25 05:14:53;;;;;;;11.20;5.83;;;;;;;24.56;72.81;99943.44;1758579;79;20966;-86
2021/06/25 05:17:18;;;;;;;10.15;5.87;;;;;;;24.72;73.45;99979.03;1753451;79;21098;-91
2021/06/25 05:19:44;;;;;;;12.75;5.95;;;;;;;24.78;73.68;99989.88;1759515;79;20868;-83
2021/06/25 05:22:10;;;;;;;11.97;6.20;;;;;;;24.72;73.80;100000.63;1773110;80;21152;-85
2021/06/25 05:24:36;;;;;;;10.50;6.17;;;;;;;24.46;74.76;100010.84;1761886;79;20963;-85
2021/06/25 05:27:02;;;;;;;10.82;6.12;;;;;;;24.44;74.91;100014.30;1762363;79;20959;-85
2021/06/25 05:29:28;;;;;;;14.25;6.70;;;;;;;24.47;75.37;100015.14;1759972;80;21821;-85
2021/06/25 05:31:54;;;;;;;11.85;5.92;;;;;;;24.48;75.18;100016.78;1753959;80;22155;-84
2021/06/25 05:34:20;;;;;;;12.80;6.17;;;;;;;24.61;75.09;100011.05;1764241;80;21120;-84
2021/06/25 05:36:45;;;;;;;13.50;6.80;;;;;;;24.58;75.36;100012.90;1762620;80;21463;-81
2021/06/25 05:39:11;;;;;;;9.78;6.17;;;;;;;24.69;75.06;100011.94;1758555;80;20975;-83
2021/06/25 05:41:37;;;;;;;10.85;6.60;;;;;;;24.70;74.98;100004.13;1751237;80;20892;-86
2021/06/25 05:44:04;;;;;;;12.20;5.97;;;;;;;24.63;75.50;100012.14;1763807;80;20963;-86
2021/06/25 05:46:30;;;;;;;15.10;7.00;;;;;;;24.61;75.77;100017.80;1766631;80;21304;-86
2021/06/25 05:48:56;;;;;;;13.40;6.67;;;;;;;24.61;76.28;100011.05;1764992;80;20887;-85
2021/06/25 05:51:21;;;;;;;13.35;7.30;;;;;;;24.73;75.95;100010.37;1758927;80;20916;-86
2021/06/25 05:53:47;;;;;;;10.75;6.35;;;;;;;24.95;75.08;100011.38;1756997;81;21050;-85
2021/06/25 05:56:13;;;;;;;12.47;7.22;;;;;;;24.71;75.23;100017.89;1759729;80;21063;-89
2021/06/25 05:58:39;;;;;;;12.55;8.05;;;;;;;24.80;75.00;100022.86;1753299;81;22106;-88
2021/06/25 06:01:04;;;;;;;10.93;7.33;;;;;;;24.84;75.10;100018.02;1761854;80;20841;-86
2021/06/25 06:03:30;;;;;;;14.87;7.37;;;;;;;24.91;74.99;100011.09;1765995;81;20884;-85
2021/06/25 06:05:56;;;;;;;14.68;7.42;;;;;;;24.99;74.79;100014.67;1762301;80;20915;-85
2021/06/25 06:08:22;;;;;;;14.55;7.30;;;;;;;24.69;75.70;100017.88;1755891;80;21029;-89
2021/06/25 06:10:47;;;;;;;13.95;7.60;;;;;;;25.00;75.03;100012.26;1756592;79;21333;-89
2021/06/25 06:13:13;;;;;;;12.58;8.05;;;;;;;24.90;75.14;100001.34;1752417;78;21152;-85
2021/06/25 06:15:39;;;;;;;13.35;8.33;;;;;;;24.81;75.30;99992.06;1765678;79;21367;-83
2021/06/25 06:18:06;;;;;;;16.15;9.33;;;;;;;24.61;76.00;99998.89;1761745;79;20898;-81
2021/06/25 06:20:31;;;;;;;16.37;9.45;;;;;;;24.73;75.97;100003.63;1779182;79;21051;-83
2021/06/25 06:33:48;;;;;;;19.23;13.25;;;;;;;24.35;77.95;100013.40;1751153;79;21198;-80
2021/06/25 06:36:28;;;;;;;20.02;12.43;;;;;;;24.60;77.32;100026.95;1796715;77;20990;-84
2021/06/25 06:38:55;;;;;;;18.12;12.25;;;;;;;24.83;77.02;100028.56;1819144;77;21062;-82
2021/06/25 06:41:21;;;;;;;24.63;13.53;;;;;;;24.96;76.63;100022.48;1755308;77;28209;-78
2021/06/25 06:43:47;;;;;;;24.12;13.85;;;;;;;25.09;76.07;100026.94;1773146;79;21029;-88
2021/06/25 06:46:14;;;;;;;22.85;13.85;;;;;;;25.14;75.63;100028.04;1746707;79;21089;-85
2021/06/25 06:48:41;;;;;;;33.10;17.92;;;;;;;25.27;75.11;100035.73;1772656;79;21143;-85
2021/06/25 06:51:07;;;;;;;;;;;;;;;25.27;75.11;100035.73;1782499;80;21065;-88
2021/06/25 06:53:33;;;;;;;29.32;19.30;;;;;;;24.97;75.77;100038.95;1764775;79;20765;-83
2021/06/25 06:56:00;;;;;;;40.15;22.13;;;;;;;25.01;76.03;100043.59;1765285;79;21285;-82
2021/06/25 06:58:26;;;;;;;33.57;19.33;;;;;;;24.88;76.48;100046.70;1759670;79;21015;-82
2021/06/25 07:00:53;;;;;;;33.83;20.27;;;;;;;25.61;73.94;100044.43;1762938;78;21889;-83
2021/06/25 07:03:19;;;;;;;39.48;23.60;;;;;;;25.69;74.12;100042.33;1778538;79;28473;-82
2021/06/25 07:05:44;;;;;;;34.23;21.90;;;;;;;25.90;72.71;100041.91;1753521;79;20968;-84
2021/06/25 07:08:10;;;;;;;42.13;24.02;;;;;;;25.77;73.30;100044.00;1764785;79;20853;-83
2021/06/25 07:10:36;;;;;;;41.53;24.87;;;;;;;25.64;73.36;100043.11;1757589;79;20898;-84
2021/06/25 07:13:02;;;;;;;37.17;24.57;;;;;;;25.21;75.46;100048.92;1776469;79;20946;-84
2021/06/25 07:15:28;;;;;;;39.40;26.77;;;;;;;25.26;75.16;100051.67;1789294;77;20926;-84
2021/06/25 07:17:53;;;;;;;44.93;28.52;;;;;;;25.66;74.22;100054.47;1810112;77;20935;-83
2021/06/25 07:20:19;;;;;;;49.35;28.00;;;;;;;25.46;74.01;100055.67;1820992;77;20856;-83
2021/06/25 07:22:45;;;;;;;43.55;27.13;;;;;;;25.51;74.22;100057.05;1807468;77;21304;-84
2021/06/25 07:25:12;;;;;;;46.42;28.92;;;;;;;25.26;75.38;100053.85;1812800;77;21173;-83
2021/06/25 07:27:38;;;;;;;44.30;28.50;;;;;;;25.14;75.46;100053.71;1801613;77;21019;-84
2021/06/25 07:30:05;;;;;;;41.08;26.57;;;;;;;24.92;75.62;100049.16;1814138;77;21523;-83
2021/06/25 07:32:31;;;;;;;48.28;29.57;;;;;;;24.95;76.22;100058.11;1818926;77;21219;-82
2021/06/25 07:34:57;;;;;;;43.90;29.65;;;;;;;24.94;76.38;100050.27;1816200;77;21658;-84
2021/06/25 07:37:23;;;;;;;44.40;28.60;;;;;;;25.07;75.78;100052.03;1819716;77;21698;-83
2021/06/25 07:39:49;;;;;;;44.13;27.43;;;;;;;25.02;76.34;100041.72;1767686;77;21138;-82
2021/06/25 07:42:15;;;;;;;49.53;30.35;;;;;;;25.10;76.14;100056.11;1789669;78;20942;-83
2021/06/25 07:44:40;;;;;;;45.80;29.40;;;;;;;25.16;75.63;100055.64;1795483;78;20999;-81
2021/06/25 07:47:06;;;;;;;43.92;29.77;;;;;;;25.32;75.23;100054.73;1774161;79;20927;-82
2021/06/25 07:49:32;;;;;;;46.70;28.83;;;;;;;25.33;75.34;100055.02;1778187;79;21584;-83
2021/06/25 07:51:58;;;;;;;43.80;25.88;;;;;;;25.40;75.34;100058.85;1755149;80;20927;-83
2021/06/25 07:54:24;;;;;;;39.58;26.17;;;;;;;25.38;74.09;100059.11;1758874;79;20963;-83
2021/06/25 07:56:50;;;;;;;44.55;28.65;;;;;;;25.26;74.23;100047.61;1760359;79;20912;-82
2021/06/25 07:59:15;;;;;;;44.40;27.70;;;;;;;25.26;74.23;100047.61;1753719;80;21435;-82
2021/06/25 08:01:41;;;;;;;45.70;29.02;;;;;;;25.73;73.75;100063.20;1766683;78;21101;-82
2021/06/25 08:04:07;;;;;;;44.63;27.75;;;;;;;25.63;73.41;100068.52;1756001;80;21171;-85
2021/06/25 08:06:33;;;;;;;42.62;26.73;;;;;;;25.46;73.93;100047.02;1764084;80;21123;-81
2021/06/25 08:09:02;;;;;;;45.40;29.60;;;;;;;25.79;72.88;100064.86;1759519;78;20972;-84
2021/06/25 08:11:26;;;;;;;45.85;29.27;;;;;;;25.94;72.29;100064.68;1774964;80;21256;-85
2021/06/25 08:13:52;;;;;;;42.00;28.95;;;;;;;25.92;72.31;100060.08;1776620;78;21064;-83
2021/06/25 08:16:17;;;;;;;42.93;30.35;;;;;;;25.75;71.91;100061.03;1754636;79;20870;-84
2021/06/25 08:18:43;;;;;;;44.23;29.85;;;;;;;25.94;71.35;100064.13;1765389;79;21348;-81
2021/06/25 08:21:09;;;;;;;46.98;30.68;;;;;;;25.87;71.54;100058.67;1771886;77;21116;-81
2021/06/25 08:23:35;;;;;;;42.95;31.25;;;;;;;26.27;70.41;100062.73;1750242;79;21161;-80
2021/06/25 08:26:00;;;;;;;41.68;29.30;;;;;;;26.36;70.17;100057.09;1778888;79;22125;-82
2021/06/25 08:28:26;;;;;;;47.23;29.72;;;;;;;26.51;69.23;100061.23;1751394;79;20921;-78
2021/06/25 08:30:52;;;;;;;41.13;27.45;;;;;;;26.60;68.94;100059.36;1757337;79;20890;-81
2021/06/25 08:33:18;;;;;;;40.35;28.57;;;;;;;26.87;68.57;100056.51;1767926;79;21066;-81
2021/06/25 08:35:43;;;;;;;39.67;29.25;;;;;;;26.81;67.15;100052.96;1763019;79;20994;-81
2021/06/25 08:38:09;;;;;;;42.88;28.98;;;;;;;26.83;66.83;100050.82;1760379;79;21902;-81
2021/06/25 08:40:35;;;;;;;53.40;35.78;;;;;;;26.87;67.39;100049.19;1748501;79;27874;-82
2021/06/25 08:43:01;;;;;;;55.08;36.98;;;;;;;26.56;68.13;100056.38;1774617;79;21041;-81
2021/06/25 08:45:28;;;;;;;60.83;42.62;;;;;;;26.45;68.96;100056.06;1758004;79;21418;-81
2021/06/25 08:47:54;;;;;;;65.35;43.02;;;;;;;26.27;69.30;100057.32;1763722;80;21086;-80
2021/06/25 08:50:22;;;;;;;64.90;43.70;;;;;;;26.28;68.96;100054.35;1758232;79;21110;-81
2021/06/25 08:52:51;;;;;;;63.28;43.35;;;;;;;26.42;68.49;100063.36;1755359;80;20952;-80
2021/06/25 08:55:18;;;;;;;53.52;37.75;;;;;;;26.28;68.24;100070.59;1758066;81;21079;-80
2021/06/25 08:57:44;;;;;;;60.92;40.35;;;;;;;26.42;67.81;100060.66;1756935;81;21059;-81
2021/06/25 09:00:13;;;;;;;63.42;43.08;;;;;;;26.40;67.56;100068.20;1739479;81;21043;-80
2021/06/25 09:02:38;;;;;;;56.58;40.10;;;;;;;26.23;68.08;100076.54;1760512;80;22083;-81
2021/06/25 09:05:09;;;;;;;55.67;39.08;;;;;;;26.37;67.52;100074.98;1758468;81;20947;-80
2021/06/25 09:07:43;;;;;;;54.65;38.10;;;;;;;26.49;67.59;100081.00;1732519;80;21056;-81
2021/06/25 09:10:10;;;;;;;56.50;38.25;;;;;;;26.43;67.04;100067.67;1758727;81;21055;-81
2021/06/25 09:12:36;;;;;;;54.10;37.10;;;;;;;26.64;66.42;100071.30;1759893;80;25695;-79
2021/06/25 09:15:11;;;;;;;57.37;37.33;;;;;;;26.70;66.92;100072.98;1755803;81;20991;-81
2021/06/25 09:18:01;;;;;;;53.50;37.75;;;;;;;26.60;67.35;100081.02;1764081;77;20966;-80
2021/06/25 09:20:43;;;;;;;53.70;36.35;;;;;;;26.37;68.00;100088.52;1757993;78;21102;-81
2021/06/25 09:23:12;;;;;;;61.30;39.73;;;;;;;26.05;68.89;100086.70;1762886;79;21544;-80
2021/06/25 09:25:58;;;;;;;58.90;38.80;;;;;;;26.19;68.86;100080.84;1771508;77;21061;-80
2021/06/25 09:28:29;;;;;;;56.35;37.28;;;;;;;25.96;69.37;100073.34;1775280;78;21942;-81
2021/06/25 09:30:56;;;;;;;50.70;35.75;;;;;;;25.77;69.95;100080.52;1750421;81;21075;-80
2021/06/25 09:33:22;;;;;;;50.83;34.55;;;;;;;26.07;68.80;100072.39;1758988;81;21301;-81
2021/06/25 09:35:53;;;;;;;59.70;37.90;;;;;;;25.69;69.91;100083.70;1758531;81;21035;-80
2021/06/25 09:38:35;;;;;;;50.85;34.60;;;;;;;25.78;69.24;100072.69;1754264;81;21091;-81
2021/06/25 09:41:01;;;;;;;49.83;35.58;;;;;;;25.86;69.10;100059.77;1782631;78;21122;-80
2021/06/25 09:43:34;;;;;;;53.55;35.28;;;;;;;26.16;68.52;100060.51;1811679;78;21270;-80
2021/06/25 09:46:03;;;;;;;46.42;30.75;;;;;;;26.35;68.15;100056.81;1773249;78;21105;-80
2021/06/25 09:48:49;;;;;;;51.95;33.20;;;;;;;26.28;67.98;100054.91;1758611;79;21549;-79
2021/06/25 09:51:15;;;;;;;52.10;32.43;;;;;;;26.28;68.25;100056.25;1757523;78;21577;-80
2021/06/25 09:54:05;;;;;;;48.33;33.08;;;;;;;26.47;67.56;100053.90;1768293;78;22051;-79
2021/06/25 09:56:32;;;;;;;44.65;30.68;;;;;;;26.07;68.39;100056.15;1817819;78;21022;-80
2021/06/25 10:02:01;;;;;;;52.35;32.38;;;;;;;26.17;67.62;100057.28;1765172;80;21003;-81
2021/06/25 10:04:36;;;;;;;47.78;32.15;;;;;;;26.00;68.81;100058.26;1766163;78;21977;-80
2021/06/25 10:07:29;;;;;;;44.48;30.37;;;;;;;26.01;68.38;100043.66;1756816;78;21224;-80
2021/06/25 10:10:10;;;;;;;49.60;31.15;;;;;;;26.25;68.01;100038.63;1772590;78;20975;-79
2021/06/25 10:12:39;;;;;;;49.70;30.20;;;;;;;26.36;67.63;100044.91;1752822;79;21060;-81
2021/06/25 10:15:07;;;;;;;52.08;31.40;;;;;;;26.60;66.69;100038.52;1765087;78;21010;-79
2021/06/25 10:17:35;;;;;;;45.75;30.15;;;;;;;26.84;66.45;100038.88;1810765;76;21065;-81
2021/06/25 10:20:10;;;;;;;44.20;28.77;;;;;;;26.55;67.27;100040.39;1777619;78;21722;-81
2021/06/25 10:22:38;;;;;;;43.40;28.00;;;;;;;26.90;65.88;100040.27;1746559;79;39582;-81
2021/06/25 10:25:08;;;;;;;44.53;30.12;;;;;;;27.05;63.73;100041.66;1746704;79;21104;-81
2021/06/25 10:27:35;;;;;;;41.77;28.20;;;;;;;26.70;65.20;100035.06;1764986;79;21316;-80
2021/06/25 10:30:01;;;;;;;43.15;28.87;;;;;;;27.09;64.06;100040.02;1755255;77;24889;-80
2021/06/25 10:32:26;;;;;;;38.75;27.80;;;;;;;27.08;63.53;100028.92;1746248;79;21144;-82
2021/06/25 10:34:52;;;;;;;39.80;26.60;;;;;;;27.11;63.27;100043.27;1759067;77;20946;-81
2021/06/25 10:37:23;;;;;;;40.40;27.20;;;;;;;27.17;63.42;100044.89;1803759;77;20943;-81
2021/06/25 10:39:49;;;;;;;46.90;29.02;;;;;;;26.92;64.49;100047.58;1818355;77;21006;-81
2021/06/25 10:42:15;;;;;;;39.38;27.62;;;;;;;26.78;64.20;100058.11;1778687;79;21030;-82
2021/06/25 10:44:53;;;;;;;43.25;28.90;;;;;;;26.56;64.61;100063.70;1724420;78;21917;-80
2021/06/25 10:47:30;;;;;;;42.20;28.57;;;;;;;26.79;63.76;100070.03;1775232;80;21603;-81
2021/06/25 10:50:10;;;;;;;39.63;27.20;;;;;;;26.88;63.61;100064.92;1773185;80;21500;-81
2021/06/25 10:52:39;;;;;;;39.25;27.58;;;;;;;26.84;64.40;100052.42;1771493;79;21686;-81
2021/06/25 10:55:17;;;;;;;45.60;28.30;;;;;;;26.76;63.58;100054.31;1769132;78;21059;-81
2021/06/25 10:57:55;;;;;;;40.48;27.58;;;;;;;26.93;63.57;100047.31;1758413;80;21282;-80
2021/06/25 11:00:36;;;;;;;40.00;26.80;;;;;;;26.83;63.39;100036.44;1770101;78;21314;-79
2021/06/25 11:03:02;;;;;;;40.75;27.00;;;;;;;27.09;62.95;100030.53;1760599;79;20940;-80
2021/06/25 11:05:35;;;;;;;40.70;27.80;;;;;;;26.82;63.46;100041.05;1758825;80;20940;-80
2021/06/25 11:08:17;;;;;;;41.75;27.52;;;;;;;26.85;63.38;100037.81;1761287;80;21035;-79
2021/06/25 11:10:51;;;;;;;36.55;25.50;;;;;;;26.74;63.91;100052.42;1747270;80;21178;-80
2021/06/25 11:13:22;;;;;;;34.65;23.30;;;;;;;27.03;63.96;100049.22;1759627;78;21113;-80
2021/06/25 11:15:50;;;;;;;36.50;25.97;;;;;;;27.35;62.85;100045.50;1763112;79;21559;-80
2021/06/25 11:18:17;;;;;;;37.17;24.82;;;;;;;27.30;62.33;100053.58;1766406;79;21476;-80
2021/06/25 11:21:04;;;;;;;37.48;25.72;;;;;;;27.67;60.92;100037.61;1761149;79;21078;-80
2021/06/25 11:23:43;;;;;;;37.05;25.40;;;;;;;27.70;60.76;100044.69;1766134;79;21087;-80
2021/06/25 11:26:23;;;;;;;35.88;25.88;;;;;;;28.76;57.99;100038.95;1770203;79;21035;-80
2021/06/25 11:28:56;;;;;;;39.42;27.80;;;;;;;27.77;59.71;100038.97;1758646;80;21310;-80
2021/06/25 11:31:26;;;;;;;38.35;25.60;;;;;;;27.65;60.34;100035.73;1739022;81;21082;-80
2021/06/25 11:34:00;;;;;;;36.20;26.65;;;;;;;28.02;59.57;100033.25;1755043;80;20912;-80